Time;durP1;ratioP1;P1;durP2;ratioP2;P2;SDS_P1;SDS_P2;PMS_P1;PMS_P2;Temp;Humidity;BMP_temperature;BMP_pressure;BME280_temperature;BME280_humidity;BME280_pressure;Samples;Min_cycle;Max_cycle;Signal;HPM_P1;HPM_P2
2022/11/20 00:00:39;;;;;;;4.07;2.57;;;;;;;;;;1708074;82;23598;-47
2022/11/20 00:03:05;;;;;;;5.40;3.10;;;;;;;;;;1709260;82;21488;-47
2022/11/20 00:05:33;;;;;;;5.87;3.03;;;;;;;;;;1704230;82;21543;-48
2022/11/20 00:07:59;;;;;;;7.17;3.40;;;;;;;;;;1708998;82;21519;-47
2022/11/20 00:10:26;;;;;;;5.37;4.00;;;;;;;;;;1710952;82;21061;-46
2022/11/20 00:12:52;;;;;;;6.80;3.90;;;;;;;;;;1684427;83;21790;-49
2022/11/20 00:15:18;;;;;;;7.63;3.80;;;;;;;;;;1668205;84;21428;-49
2022/11/20 00:17:46;;;;;;;4.03;3.17;;;;;;;;;;1672096;84;21527;-48
2022/11/20 00:20:12;;;;;;;5.43;2.87;;;;;;;;;;1673474;84;21533;-47
2022/11/20 00:22:39;;;;;;;5.57;3.03;;;;;;;;;;1665307;84;21132;-47
2022/11/20 00:25:05;;;;;;;6.77;3.40;;;;;;;;;;1672744;84;21853;-47
2022/11/20 00:27:32;;;;;;;5.20;2.93;;;;;;;;;;1668481;84;21046;-47
2022/11/20 00:29:59;;;;;;;4.20;2.67;;;;;;;;;;1672437;84;21122;-48
2022/11/20 00:32:25;;;;;;;10.83;3.97;;;;;;;;;;1670180;84;21106;-47
2022/11/20 00:34:52;;;;;;;7.13;4.17;;;;;;;;;;1668386;84;21049;-46
2022/11/20 00:37:19;;;;;;;7.83;4.00;;;;;;;;;;1672478;84;21832;-45
2022/11/20 00:39:45;;;;;;;5.30;2.93;;;;;;;;;;1672695;84;21148;-45
2022/11/20 00:42:11;;;;;;;8.23;4.37;;;;;;;;;;1670538;84;21436;-45
2022/11/20 00:44:38;;;;;;;9.33;3.70;;;;;;;;;;1670693;84;21098;-45
2022/11/20 00:47:04;;;;;;;12.63;4.70;;;;;;;;;;1669816;84;21093;-46
2022/11/20 00:49:30;;;;;;;15.73;4.93;;;;;;;;;;1672166;84;21851;-45
2022/11/20 00:51:56;;;;;;;11.40;4.57;;;;;;;;;;1672155;84;21077;-45
2022/11/20 00:54:22;;;;;;;9.47;4.03;;;;;;;;;;1666713;84;22276;-44
2022/11/20 00:56:49;;;;;;;12.07;3.77;;;;;;;;;;1667094;84;21112;-46
2022/11/20 00:59:15;;;;;;;7.63;3.97;;;;;;;;;;1669468;84;21064;-47
2022/11/20 01:01:41;;;;;;;6.53;3.77;;;;;;;;;;1669553;84;21791;-46
2022/11/20 01:04:07;;;;;;;13.07;5.37;;;;;;;;;;1671958;84;21108;-45
2022/11/20 01:06:35;;;;;;;9.53;5.00;;;;;;;;;;1667967;84;21054;-49
2022/11/20 01:09:04;;;;;;;9.20;4.67;;;;;;;;;;1668198;84;21950;-44
2022/11/20 01:11:32;;;;;;;8.00;4.80;;;;;;;;;;1666669;84;21065;-44
2022/11/20 01:13:59;;;;;;;8.23;4.23;;;;;;;;;;1697777;82;21911;-45
2022/11/20 01:16:28;;;;;;;10.63;4.73;;;;;;;;;;1702770;83;21077;-44
2022/11/20 01:18:58;;;;;;;6.83;4.10;;;;;;;;;;1698422;82;21082;-47
2022/11/20 01:21:26;;;;;;;13.93;5.50;;;;;;;;;;1702596;82;21074;-47
2022/11/20 01:23:53;;;;;;;8.13;3.73;;;;;;;;;;1699935;82;21133;-44
2022/11/20 01:26:21;;;;;;;10.77;4.43;;;;;;;;;;1698331;82;21867;-44
2022/11/20 01:28:48;;;;;;;12.87;5.90;;;;;;;;;;1702267;82;21074;-45
2022/11/20 01:31:19;;;;;;;9.03;3.97;;;;;;;;;;1700270;82;21144;-44
2022/11/20 01:33:47;;;;;;;13.67;5.20;;;;;;;;;;1701488;82;21504;-45
2022/11/20 01:36:13;;;;;;;10.60;4.63;;;;;;;;;;1699512;83;21103;-45
2022/11/20 01:38:39;;;;;;;8.77;4.83;;;;;;;;;;1702255;82;21834;-45
2022/11/20 01:41:06;;;;;;;6.30;3.90;;;;;;;;;;1700529;82;22532;-45
2022/11/20 01:43:32;;;;;;;8.60;4.30;;;;;;;;;;1700677;82;21137;-45
2022/11/20 01:46:16;;;;;;;12.23;5.13;;;;;;;;;;1699867;82;21069;-46
2022/11/20 01:48:46;;;;;;;12.93;5.70;;;;;;;;;;1700316;82;21038;-48
2022/11/20 01:51:49;;;;;;;10.97;4.40;;;;;;;;;;1699958;83;21970;-46
2022/11/20 01:54:19;;;;;;;10.50;4.17;;;;;;;;;;1699587;82;21090;-44
2022/11/20 01:56:45;;;;;;;11.17;4.23;;;;;;;;;;1696825;82;21630;-46
2022/11/20 01:59:14;;;;;;;11.87;4.90;;;;;;;;;;1700374;82;21481;-46
2022/11/20 02:01:41;;;;;;;14.43;5.97;;;;;;;;;;1702665;82;21546;-49
2022/11/20 02:04:07;;;;;;;23.53;8.70;;;;;;;;;;1699757;82;21940;-46
2022/11/20 02:06:42;;;;;;;14.90;6.87;;;;;;;;;;1703803;82;21062;-46
2022/11/20 02:09:08;;;;;;;19.27;7.73;;;;;;;;;;1700225;82;21117;-44
2022/11/20 02:11:35;;;;;;;19.50;7.53;;;;;;;;;;1699805;82;21533;-44
2022/11/20 02:14:01;;;;;;;20.13;8.73;;;;;;;;;;1711344;82;21073;-45
2022/11/20 02:16:34;;;;;;;22.07;9.20;;;;;;;;;;1714650;82;23520;-45
2022/11/20 02:19:01;;;;;;;24.43;9.60;;;;;;;;;;1653238;85;21095;-45
2022/11/20 02:21:32;;;;;;;19.73;8.90;;;;;;;;;;1674935;83;21057;-46
2022/11/20 02:24:15;;;;;;;20.97;8.87;;;;;;;;;;1643638;85;22843;-45
2022/11/20 02:27:10;;;;;;;18.63;8.27;;;;;;;;;;1677541;83;21081;-45
2022/11/20 02:29:54;;;;;;;;;;;;;;;;;;1659052;85;21861;-45
2022/11/20 02:32:28;;;;;;;17.00;7.57;;;;;;;;;;1674531;83;20183;-46
2022/11/20 02:34:56;;;;;;;13.63;6.23;;;;;;;;;;1678702;83;21081;-45
2022/11/20 02:37:23;;;;;;;12.10;6.33;;;;;;;;;;1682883;83;21058;-46
2022/11/20 02:39:51;;;;;;;14.87;6.47;;;;;;;;;;1680636;85;21079;-46
2022/11/20 02:42:17;;;;;;;14.10;6.20;;;;;;;;;;1680776;83;21975;-48
2022/11/20 02:44:43;;;;;;;13.60;6.73;;;;;;;;;;1678517;83;21083;-45
2022/11/20 02:47:11;;;;;;;12.93;5.43;;;;;;;;;;1679473;83;21057;-46
2022/11/20 02:49:38;;;;;;;18.27;6.93;;;;;;;;;;1678111;83;21307;-46
2022/11/20 02:52:04;;;;;;;11.43;6.33;;;;;;;;;;1675666;83;21079;-45
2022/11/20 02:54:31;;;;;;;9.87;5.83;;;;;;;;;;1664977;84;21903;-45
2022/11/20 02:56:57;;;;;;;9.20;6.07;;;;;;;;;;1664508;84;21203;-45
2022/11/20 02:59:23;;;;;;;11.20;5.30;;;;;;;;;;1662263;84;21089;-45
2022/11/20 03:01:49;;;;;;;9.70;5.53;;;;;;;;;;1648144;85;21388;-46
2022/11/20 03:04:16;;;;;;;10.43;5.40;;;;;;;;;;1644877;85;21083;-45
2022/11/20 03:06:42;;;;;;;9.20;5.40;;;;;;;;;;1678921;83;21879;-47
2022/11/20 03:09:09;;;;;;;14.70;6.90;;;;;;;;;;1676915;83;21426;-46
2022/11/20 03:11:35;;;;;;;10.00;5.53;;;;;;;;;;1676197;83;21078;-48
2022/11/20 03:14:03;;;;;;;9.37;5.97;;;;;;;;;;1676372;83;21259;-46
2022/11/20 03:16:30;;;;;;;9.77;5.53;;;;;;;;;;1707090;82;21230;-46
2022/11/20 03:18:57;;;;;;;13.03;5.97;;;;;;;;;;1710776;82;21957;-48
2022/11/20 03:21:23;;;;;;;9.83;6.13;;;;;;;;;;1706529;82;21082;-45
2022/11/20 03:23:49;;;;;;;12.30;6.83;;;;;;;;;;1707625;82;21560;-46
2022/11/20 03:26:20;;;;;;;10.73;6.33;;;;;;;;;;1707097;82;21059;-45
2022/11/20 03:28:48;;;;;;;12.67;6.50;;;;;;;;;;1706643;82;21112;-45
2022/11/20 03:31:15;;;;;;;12.03;7.23;;;;;;;;;;1708883;82;21884;-44
2022/11/20 03:33:41;;;;;;;12.40;5.30;;;;;;;;;;1710323;82;21046;-46
2022/11/20 03:36:10;;;;;;;10.30;6.70;;;;;;;;;;1709538;82;21098;-45
2022/11/20 03:38:36;;;;;;;9.10;6.30;;;;;;;;;;1707364;82;21090;-47
2022/11/20 03:41:05;;;;;;;14.33;7.47;;;;;;;;;;1705857;82;21065;-46
2022/11/20 03:43:31;;;;;;;14.50;8.03;;;;;;;;;;1707264;82;21840;-45
2022/11/20 03:45:57;;;;;;;13.27;6.57;;;;;;;;;;1705852;82;21430;-44
2022/11/20 03:48:24;;;;;;;12.67;7.50;;;;;;;;;;1707374;82;21534;-46
2022/11/20 03:50:52;;;;;;;14.93;9.73;;;;;;;;;;1706583;82;21069;-47
2022/11/20 03:53:18;;;;;;;20.27;10.20;;;;;;;;;;1708053;82;21093;-45
2022/11/20 03:55:44;;;;;;;15.50;10.50;;;;;;;;;;1709422;82;22485;-47
2022/11/20 03:58:13;;;;;;;15.83;10.73;;;;;;;;;;1709466;82;21011;-45
2022/11/20 04:00:40;;;;;;;16.50;10.97;;;;;;;;;;1707198;82;21073;-45
2022/11/20 04:03:06;;;;;;;16.27;9.63;;;;;;;;;;1707113;82;21933;-46
2022/11/20 04:05:33;;;;;;;17.40;10.40;;;;;;;;;;1711803;82;21484;-47
2022/11/20 04:08:00;;;;;;;16.17;10.03;;;;;;;;;;1709771;82;22040;-45
2022/11/20 04:10:26;;;;;;;15.97;10.73;;;;;;;;;;1710516;82;21058;-45
2022/11/20 04:12:53;;;;;;;17.23;11.17;;;;;;;;;;1704825;82;21197;-45
2022/11/20 04:15:19;;;;;;;20.87;12.53;;;;;;;;;;1713080;82;22474;-46
2022/11/20 04:17:46;;;;;;;21.57;13.07;;;;;;;;;;1714413;82;21530;-48
2022/11/20 04:20:12;;;;;;;26.60;14.53;;;;;;;;;;1713311;82;22530;-45
2022/11/20 04:22:40;;;;;;;19.20;11.53;;;;;;;;;;1711834;82;21054;-46
2022/11/20 04:25:07;;;;;;;19.57;12.37;;;;;;;;;;1713725;82;21112;-47
2022/11/20 04:27:33;;;;;;;21.07;12.13;;;;;;;;;;1714947;82;21457;-48
2022/11/20 04:29:59;;;;;;;23.17;12.40;;;;;;;;;;1712670;82;21049;-46
2022/11/20 04:32:26;;;;;;;20.37;11.27;;;;;;;;;;1712453;82;21861;-45
2022/11/20 04:34:52;;;;;;;32.33;16.67;;;;;;;;;;1713962;82;21061;-45
2022/11/20 04:37:18;;;;;;;40.03;19.83;;;;;;;;;;1715526;83;21041;-46
2022/11/20 04:39:44;;;;;;;63.70;26.83;;;;;;;;;;1711450;82;21039;-45
2022/11/20 04:42:29;;;;;;;47.63;23.80;;;;;;;;;;1716857;82;21113;-44
2022/11/20 04:44:55;;;;;;;50.33;22.62;;;;;;;;;;1715069;82;21865;-45
2022/11/20 04:47:22;;;;;;;46.53;21.20;;;;;;;;;;1712149;82;21045;-46
2022/11/20 04:49:49;;;;;;;40.20;19.20;;;;;;;;;;1716116;82;21082;-47
2022/11/20 04:52:15;;;;;;;35.77;17.63;;;;;;;;;;1714817;82;21590;-46
2022/11/20 04:54:42;;;;;;;34.27;17.00;;;;;;;;;;1714637;82;21069;-47
2022/11/20 04:57:08;;;;;;;27.07;14.43;;;;;;;;;;1714231;82;23172;-45
2022/11/20 04:59:34;;;;;;;24.40;13.20;;;;;;;;;;1713896;82;21517;-44
2022/11/20 05:02:00;;;;;;;25.33;12.70;;;;;;;;;;1712765;82;21109;-45
2022/11/20 05:04:27;;;;;;;22.73;13.70;;;;;;;;;;1714499;82;21048;-44
2022/11/20 05:06:53;;;;;;;23.40;13.80;;;;;;;;;;1711999;82;21101;-46
2022/11/20 05:09:19;;;;;;;26.33;15.43;;;;;;;;;;1715912;82;21854;-44
2022/11/20 05:11:47;;;;;;;31.50;17.07;;;;;;;;;;1711210;82;21075;-45
2022/11/20 05:14:13;;;;;;;35.67;19.50;;;;;;;;;;1693657;82;21066;-45
2022/11/20 05:16:41;;;;;;;37.50;19.87;;;;;;;;;;1664722;84;21058;-45
2022/11/20 05:19:08;;;;;;;43.37;20.47;;;;;;;;;;1664147;84;21588;-44
2022/11/20 05:21:34;;;;;;;37.93;18.73;;;;;;;;;;1661466;84;22044;-45
2022/11/20 05:24:00;;;;;;;44.27;18.73;;;;;;;;;;1661241;84;21115;-43
2022/11/20 05:26:26;;;;;;;25.30;15.00;;;;;;;;;;1663505;84;21104;-44
2022/11/20 05:28:53;;;;;;;26.10;14.83;;;;;;;;;;1661808;84;21038;-46
2022/11/20 05:31:22;;;;;;;36.97;18.80;;;;;;;;;;1664061;84;21084;-44
2022/11/20 05:33:48;;;;;;;62.53;34.23;;;;;;;;;;1667929;84;21995;-44
2022/11/20 05:36:14;;;;;;;58.63;29.10;;;;;;;;;;1663260;84;21164;-43
2022/11/20 05:38:42;;;;;;;50.33;25.63;;;;;;;;;;1663256;84;21107;-44
2022/11/20 05:41:15;;;;;;;37.93;20.77;;;;;;;;;;1662497;84;21574;-48
2022/11/20 05:43:55;;;;;;;38.38;20.57;;;;;;;;;;1662378;84;21076;-47
2022/11/20 05:46:23;;;;;;;27.93;16.13;;;;;;;;;;1644592;84;21906;-44
2022/11/20 05:48:49;;;;;;;29.00;15.47;;;;;;;;;;1663200;84;21019;-46
2022/11/20 05:51:16;;;;;;;21.67;12.30;;;;;;;;;;1660552;84;21453;-45
2022/11/20 05:53:42;;;;;;;19.20;11.03;;;;;;;;;;1658458;84;21136;-45
2022/11/20 05:56:11;;;;;;;17.10;10.17;;;;;;;;;;1667239;84;21048;-45
2022/11/20 05:58:38;;;;;;;19.90;11.80;;;;;;;;;;1664833;84;21843;-44
2022/11/20 06:01:13;;;;;;;18.40;10.53;;;;;;;;;;1653222;84;21085;-47
2022/11/20 06:03:40;;;;;;;16.73;9.90;;;;;;;;;;1660422;84;21645;-46
2022/11/20 06:06:06;;;;;;;16.97;9.27;;;;;;;;;;1663972;84;21046;-46
2022/11/20 06:08:34;;;;;;;17.53;10.47;;;;;;;;;;1660981;84;21081;-44
2022/11/20 06:11:06;;;;;;;19.27;10.63;;;;;;;;;;1664505;84;21879;-47
2022/11/20 06:13:32;;;;;;;15.87;11.23;;;;;;;;;;1665545;84;21095;-46
2022/11/20 06:16:00;;;;;;;17.00;10.30;;;;;;;;;;1669557;84;21100;-45
2022/11/20 06:18:29;;;;;;;19.07;11.20;;;;;;;;;;1672630;84;21061;-46
2022/11/20 06:21:01;;;;;;;19.40;12.10;;;;;;;;;;1672678;84;21045;-46
2022/11/20 06:23:29;;;;;;;17.57;10.80;;;;;;;;;;1671313;84;21919;-45
2022/11/20 06:26:00;;;;;;;18.37;11.50;;;;;;;;;;1675008;84;21214;-44
2022/11/20 06:28:26;;;;;;;20.73;11.63;;;;;;;;;;1672612;84;21144;-44
2022/11/20 06:30:53;;;;;;;20.97;12.57;;;;;;;;;;1675278;84;21066;-45
2022/11/20 06:33:19;;;;;;;21.60;12.97;;;;;;;;;;1668895;84;21093;-45
2022/11/20 06:35:45;;;;;;;22.30;13.73;;;;;;;;;;1673588;84;23556;-45
2022/11/20 06:38:12;;;;;;;19.57;12.13;;;;;;;;;;1673079;84;21554;-45
2022/11/20 06:40:40;;;;;;;18.90;12.20;;;;;;;;;;1679888;84;21069;-46
2022/11/20 06:43:07;;;;;;;22.77;12.90;;;;;;;;;;1674675;84;21171;-44
2022/11/20 06:45:33;;;;;;;21.80;13.97;;;;;;;;;;1672114;84;21097;-45
2022/11/20 06:48:00;;;;;;;20.03;12.77;;;;;;;;;;1665437;84;22925;-44
2022/11/20 06:50:26;;;;;;;23.57;13.50;;;;;;;;;;1669257;84;21109;-45
2022/11/20 06:52:52;;;;;;;22.10;13.50;;;;;;;;;;1667296;84;21182;-47
2022/11/20 06:55:19;;;;;;;20.23;13.33;;;;;;;;;;1669952;84;21141;-46
2022/11/20 06:57:45;;;;;;;27.10;15.70;;;;;;;;;;1675135;84;21058;-47
2022/11/20 07:00:13;;;;;;;24.03;15.03;;;;;;;;;;1670337;84;22090;-45
2022/11/20 07:02:39;;;;;;;24.93;15.33;;;;;;;;;;1632096;86;21586;-46
2022/11/20 07:05:06;;;;;;;25.63;15.40;;;;;;;;;;1608276;86;21193;-46
2022/11/20 07:07:33;;;;;;;23.07;14.17;;;;;;;;;;1676737;84;21351;-44
2022/11/20 07:10:00;;;;;;;23.00;15.50;;;;;;;;;;1673933;84;21058;-45
2022/11/20 07:12:26;;;;;;;30.00;16.00;;;;;;;;;;1671833;84;21937;-50
2022/11/20 07:14:53;;;;;;;20.87;15.47;;;;;;;;;;1683847;82;21247;-45
2022/11/20 07:17:19;;;;;;;22.67;15.70;;;;;;;;;;1708889;82;21077;-43
2022/11/20 07:19:47;;;;;;;23.07;15.93;;;;;;;;;;1705713;82;22074;-44
2022/11/20 07:22:13;;;;;;;27.83;16.63;;;;;;;;;;1705967;82;21112;-44
2022/11/20 07:24:41;;;;;;;24.30;17.10;;;;;;;;;;1708261;82;21843;-46
2022/11/20 07:29:37;;;;;;;23.40;15.53;;;;;;;;;;1787443;78;27369;-46
2022/11/20 07:32:04;;;;;;;24.30;14.57;;;;;;;;;;1769766;78;21057;-46
2022/11/20 07:34:30;;;;;;;28.17;16.30;;;;;;;;;;1773225;78;21861;-48
2022/11/20 07:36:58;;;;;;;23.47;15.20;;;;;;;;;;1768001;78;21119;-48
2022/11/20 07:39:24;;;;;;;21.93;14.43;;;;;;;;;;1776673;78;21041;-45
2022/11/20 07:41:50;;;;;;;22.77;15.40;;;;;;;;;;1770890;78;21086;-47
2022/11/20 07:44:17;;;;;;;26.03;15.33;;;;;;;;;;1775074;78;21653;-45
2022/11/20 07:46:43;;;;;;;24.73;16.23;;;;;;;;;;1770273;78;21913;-46
2022/11/20 07:49:09;;;;;;;25.30;17.40;;;;;;;;;;1771140;78;21115;-45
2022/11/20 07:51:35;;;;;;;25.07;15.80;;;;;;;;;;1769221;78;21057;-45
2022/11/20 07:54:02;;;;;;;27.70;17.47;;;;;;;;;;1773514;78;21061;-46
2022/11/20 07:56:29;;;;;;;28.80;20.07;;;;;;;;;;1772835;78;21042;-46
2022/11/20 07:58:55;;;;;;;33.07;20.73;;;;;;;;;;1767175;78;21787;-47
2022/11/20 08:01:21;;;;;;;30.33;20.03;;;;;;;;;;1774741;78;21061;-47
2022/11/20 08:03:47;;;;;;;26.17;17.93;;;;;;;;;;1780229;78;21143;-46
2022/11/20 08:06:14;;;;;;;29.53;18.13;;;;;;;;;;1768595;78;21317;-46
2022/11/20 08:08:42;;;;;;;29.47;17.57;;;;;;;;;;1761945;79;21042;-47
2022/11/20 08:14:11;;;;;;;21.65;16.25;;;;;;;;;;1762058;79;21030;-46
2022/11/20 08:16:48;;;;;;;23.32;15.83;;;;;;;;;;1760682;79;21029;-45
2022/11/20 08:19:16;;;;;;;25.10;16.77;;;;;;;;;;1759933;79;21046;-46
2022/11/20 08:21:43;;;;;;;24.77;16.90;;;;;;;;;;1759680;79;21080;-45
2022/11/20 08:24:10;;;;;;;26.93;17.60;;;;;;;;;;1757512;79;22629;-45
2022/11/20 08:26:38;;;;;;;27.10;17.47;;;;;;;;;;1767519;79;21256;-45
2022/11/20 08:29:05;;;;;;;23.60;16.90;;;;;;;;;;1755279;79;22415;-45
2022/11/20 08:31:31;;;;;;;20.50;16.07;;;;;;;;;;1744125;79;21039;-45
2022/11/20 08:33:58;;;;;;;25.47;16.80;;;;;;;;;;1749284;79;21129;-45
2022/11/20 08:36:24;;;;;;;20.10;14.37;;;;;;;;;;1751575;79;21780;-46
2022/11/20 08:38:52;;;;;;;25.23;16.90;;;;;;;;;;1748197;79;21566;-46
2022/11/20 08:41:31;;;;;;;24.03;16.57;;;;;;;;;;1751566;79;21564;-48
2022/11/20 08:43:55;;;;;;;24.25;16.40;;;;;;;;;;1745993;79;21086;-46
2022/11/20 08:46:22;;;;;;;34.53;21.13;;;;;;;;;;1745794;79;21079;-46
2022/11/20 08:48:48;;;;;;;31.37;20.50;;;;;;;;;;1741620;79;21810;-45
2022/11/20 08:51:14;;;;;;;26.83;18.73;;;;;;;;;;1751373;79;21000;-46
2022/11/20 08:53:40;;;;;;;26.17;18.57;;;;;;;;;;1744056;79;21093;-45
2022/11/20 08:56:07;;;;;;;25.03;18.37;;;;;;;;;;1741607;79;21193;-46
2022/11/20 08:58:34;;;;;;;27.30;18.50;;;;;;;;;;1747331;79;21054;-44
2022/11/20 09:01:01;;;;;;;26.17;17.73;;;;;;;;;;1746254;79;21938;-45
2022/11/20 09:03:28;;;;;;;21.07;15.20;;;;;;;;;;1745502;79;21579;-45
2022/11/20 09:06:00;;;;;;;22.40;13.53;;;;;;;;;;1746480;79;21108;-45
2022/11/20 09:08:27;;;;;;;21.43;14.60;;;;;;;;;;1752441;79;21061;-45
2022/11/20 09:10:54;;;;;;;20.40;15.60;;;;;;;;;;1747779;79;21066;-48
2022/11/20 09:13:21;;;;;;;21.03;14.10;;;;;;;;;;1744660;79;23258;-47
2022/11/20 09:15:47;;;;;;;19.70;14.33;;;;;;;;;;1743072;79;21615;-44
2022/11/20 09:18:14;;;;;;;17.80;12.47;;;;;;;;;;1747862;79;21512;-45
2022/11/20 09:20:40;;;;;;;14.90;11.27;;;;;;;;;;1742330;79;21034;-48
2022/11/20 09:23:07;;;;;;;16.20;11.57;;;;;;;;;;1741171;79;21066;-45
2022/11/20 09:25:34;;;;;;;14.70;10.77;;;;;;;;;;1741869;79;22034;-45
2022/11/20 09:28:00;;;;;;;16.23;11.17;;;;;;;;;;1747143;79;21385;-47
2022/11/20 09:30:26;;;;;;;14.73;10.87;;;;;;;;;;1745555;79;21513;-44
2022/11/20 09:32:53;;;;;;;12.33;9.57;;;;;;;;;;1745377;79;21444;-45
2022/11/20 09:35:19;;;;;;;12.73;10.57;;;;;;;;;;1747811;79;21540;-47
2022/11/20 09:37:45;;;;;;;13.47;10.47;;;;;;;;;;1745404;79;21818;-43
2022/11/20 09:40:22;;;;;;;13.13;10.87;;;;;;;;;;1751496;79;21034;-45
2022/11/20 09:43:07;;;;;;;14.63;9.97;;;;;;;;;;1745406;79;21042;-45
2022/11/20 09:45:46;;;;;;;14.00;10.53;;;;;;;;;;1730172;79;21610;-44
2022/11/20 09:48:19;;;;;;;14.40;10.33;;;;;;;;;;1742648;79;21036;-44
2022/11/20 09:50:54;;;;;;;19.43;11.73;;;;;;;;;;1746499;80;21966;-47
2022/11/20 09:53:24;;;;;;;15.80;12.00;;;;;;;;;;1743352;79;21586;-44
2022/11/20 09:55:50;;;;;;;13.00;10.20;;;;;;;;;;1747830;79;22304;-46
2022/11/20 09:58:44;;;;;;;15.03;11.27;;;;;;;;;;1739870;79;21102;-45
2022/11/20 10:01:21;;;;;;;11.60;9.17;;;;;;;;;;1681869;82;21106;-45
2022/11/20 10:04:04;;;;;;;16.77;10.33;;;;;;;;;;1745695;79;21818;-44
2022/11/20 10:06:40;;;;;;;16.17;10.67;;;;;;;;;;1726069;81;21347;-46
2022/11/20 10:09:13;;;;;;;13.40;10.57;;;;;;;;;;1747253;79;21062;-46
2022/11/20 10:11:53;;;;;;;18.73;11.65;;;;;;;;;;1741723;79;21042;-44
2022/11/20 10:14:48;;;;;;;17.60;12.13;;;;;;;;;;1745928;79;21026;-47
2022/11/20 10:17:35;;;;;;;11.53;9.70;;;;;;;;;;1747601;79;21796;-45
2022/11/20 10:20:16;;;;;;;10.93;9.00;;;;;;;;;;1744063;79;21081;-45
2022/11/20 10:23:06;;;;;;;11.97;9.33;;;;;;;;;;1746430;79;21011;-45
2022/11/20 10:25:42;;;;;;;14.40;10.83;;;;;;;;;;1739046;79;22477;-44
2022/11/20 10:28:17;;;;;;;13.83;10.47;;;;;;;;;;1744725;79;21023;-44
2022/11/20 10:30:45;;;;;;;9.67;8.60;;;;;;;;;;1744454;79;22102;-45
2022/11/20 10:33:21;;;;;;;13.87;10.57;;;;;;;;;;1742569;79;21078;-45
2022/11/20 10:36:06;;;;;;;14.63;10.87;;;;;;;;;;1717747;79;21057;-44
2022/11/20 10:38:38;;;;;;;13.70;10.97;;;;;;;;;;1747695;79;21082;-45
2022/11/20 10:43:50;;;;;;;;;;;;;;;;;;1745134;79;21822;-45
2022/11/20 10:46:22;;;;;;;14.47;10.87;;;;;;;;;;1739930;79;20496;-46
2022/11/20 10:48:48;;;;;;;14.77;11.57;;;;;;;;;;1742683;79;21042;-46
2022/11/20 10:51:36;;;;;;;16.30;9.80;;;;;;;;;;1740907;79;21071;-46
2022/11/20 10:54:09;;;;;;;16.27;10.60;;;;;;;;;;1743121;79;21543;-44
2022/11/20 10:56:39;;;;;;;13.60;10.47;;;;;;;;;;1742654;79;22251;-44
2022/11/20 10:59:39;;;;;;;13.00;10.77;;;;;;;;;;1738410;79;21142;-46
2022/11/20 11:02:19;;;;;;;11.47;9.83;;;;;;;;;;1744278;79;21536;-45
2022/11/20 11:04:47;;;;;;;12.70;11.40;;;;;;;;;;1739120;79;21514;-45
2022/11/20 11:07:17;;;;;;;13.97;10.37;;;;;;;;;;1743226;79;21069;-45
2022/11/20 11:09:48;;;;;;;11.87;9.97;;;;;;;;;;1744795;79;22037;-45
2022/11/20 11:12:14;;;;;;;10.50;9.43;;;;;;;;;;1725284;81;21456;-46
2022/11/20 11:14:45;;;;;;;10.77;9.63;;;;;;;;;;1741540;79;21049;-46
2022/11/20 11:17:27;;;;;;;15.13;11.77;;;;;;;;;;1742679;79;21528;-44
2022/11/20 11:20:12;;;;;;;11.80;10.43;;;;;;;;;;1749122;79;21097;-46
2022/11/20 11:22:49;;;;;;;12.20;10.53;;;;;;;;;;1744294;79;21839;-45
2022/11/20 11:25:34;;;;;;;15.27;12.30;;;;;;;;;;1742918;79;21069;-46
2022/11/20 11:28:04;;;;;;;17.62;12.58;;;;;;;;;;1744996;79;21046;-45
2022/11/20 11:30:42;;;;;;;16.43;12.17;;;;;;;;;;1748518;79;21051;-44
2022/11/20 11:33:14;;;;;;;15.10;12.00;;;;;;;;;;1744254;79;21059;-46
2022/11/20 11:35:46;;;;;;;14.40;11.70;;;;;;;;;;1748500;79;21774;-47
2022/11/20 11:38:15;;;;;;;14.23;12.00;;;;;;;;;;1744979;79;21038;-44
2022/11/20 11:40:41;;;;;;;12.00;10.80;;;;;;;;;;1753257;79;21689;-45
2022/11/20 11:46:27;;;;;;;13.43;10.70;;;;;;;;;;1745705;79;21058;-46
2022/11/20 11:49:13;;;;;;;12.13;9.80;;;;;;;;;;1743444;79;22560;-46
2022/11/20 11:52:13;;;;;;;11.10;9.57;;;;;;;;;;1748707;79;21066;-45
2022/11/20 11:54:53;;;;;;;13.37;10.57;;;;;;;;;;1746624;79;21042;-45
2022/11/20 11:57:26;;;;;;;12.90;9.33;;;;;;;;;;1747868;79;21086;-48
2022/11/20 11:59:56;;;;;;;12.67;10.03;;;;;;;;;;1744464;79;21070;-46
2022/11/20 12:02:49;;;;;;;12.00;9.57;;;;;;;;;;1743802;79;21834;-46
2022/11/20 12:05:29;;;;;;;13.67;10.97;;;;;;;;;;1755727;79;21607;-45
2022/11/20 12:08:08;;;;;;;14.50;11.23;;;;;;;;;;1732577;80;21072;-44
2022/11/20 12:11:00;;;;;;;12.67;10.70;;;;;;;;;;1738370;79;21050;-45
2022/11/20 12:13:30;;;;;;;14.50;10.93;;;;;;;;;;1745791;79;21053;-45
2022/11/20 12:15:57;;;;;;;15.80;11.40;;;;;;;;;;1743162;79;21777;-44
2022/11/20 12:18:23;;;;;;;16.33;11.30;;;;;;;;;;1725076;81;21129;-44
2022/11/20 12:21:05;;;;;;;14.37;10.53;;;;;;;;;;1742368;79;21436;-44
2022/11/20 12:23:47;;;;;;;12.03;10.17;;;;;;;;;;1743548;79;21058;-44
2022/11/20 12:26:17;;;;;;;11.10;8.53;;;;;;;;;;1741167;79;20998;-45
2022/11/20 12:29:02;;;;;;;13.03;9.20;;;;;;;;;;1746658;79;22699;-46
2022/11/20 12:31:35;;;;;;;13.73;10.73;;;;;;;;;;1747598;79;21528;-47
2022/11/20 12:34:08;;;;;;;10.50;8.63;;;;;;;;;;1748391;79;21016;-47
2022/11/20 12:36:51;;;;;;;12.77;10.00;;;;;;;;;;1740346;79;21491;-45
2022/11/20 12:39:25;;;;;;;11.20;10.03;;;;;;;;;;1752960;79;21057;-44
2022/11/20 12:45:12;;;;;;;14.00;10.63;;;;;;;;;;1746159;79;21062;-45
2022/11/20 12:48:02;;;;;;;11.43;8.67;;;;;;;;;;1700632;80;21003;-47
2022/11/20 12:50:41;;;;;;;10.00;8.90;;;;;;;;;;1743136;79;22038;-45
2022/11/20 12:53:20;;;;;;;11.73;9.50;;;;;;;;;;1745603;79;21050;-45
2022/11/20 12:56:07;;;;;;;14.00;9.63;;;;;;;;;;1752346;79;21791;-47
2022/11/20 12:58:55;;;;;;;11.83;9.83;;;;;;;;;;1749436;79;21036;-45
2022/11/20 13:01:43;;;;;;;13.97;8.67;;;;;;;;;;1748477;79;21252;-45
2022/11/20 13:04:25;;;;;;;14.87;10.73;;;;;;;;;;1705376;82;21108;-46
2022/11/20 13:06:52;;;;;;;12.33;9.80;;;;;;;;;;1709356;82;21060;-45
2022/11/20 13:09:21;;;;;;;17.83;12.97;;;;;;;;;;1725727;79;22028;-47
2022/11/20 13:12:03;;;;;;;11.27;10.07;;;;;;;;;;1750623;79;22203;-45
2022/11/20 13:14:39;;;;;;;15.33;10.37;;;;;;;;;;1743566;79;21801;-47
2022/11/20 13:17:18;;;;;;;10.43;9.30;;;;;;;;;;1745418;79;21586;-47
2022/11/20 13:19:48;;;;;;;11.40;9.00;;;;;;;;;;1738730;79;21050;-44
2022/11/20 13:22:18;;;;;;;10.83;9.07;;;;;;;;;;1752535;79;23632;-44
2022/11/20 13:24:48;;;;;;;15.93;9.70;;;;;;;;;;1742780;79;21051;-47
2022/11/20 13:27:18;;;;;;;12.20;9.57;;;;;;;;;;1739875;79;21042;-44
2022/11/20 13:29:46;;;;;;;11.37;9.47;;;;;;;;;;1752062;79;21003;-45
2022/11/20 13:32:20;;;;;;;13.37;8.43;;;;;;;;;;1747059;79;21045;-45
2022/11/20 13:34:53;;;;;;;14.40;9.97;;;;;;;;;;1752858;79;21735;-44
2022/11/20 13:37:34;;;;;;;17.93;11.13;;;;;;;;;;1745214;79;21165;-46
2022/11/20 13:40:12;;;;;;;17.30;11.20;;;;;;;;;;1741201;79;21253;-44
2022/11/20 13:42:44;;;;;;;19.50;13.37;;;;;;;;;;1740591;79;21063;-44
2022/11/20 13:45:23;;;;;;;15.07;10.50;;;;;;;;;;1742693;79;21049;-44
2022/11/20 13:47:50;;;;;;;13.23;10.53;;;;;;;;;;1748283;79;21835;-44
2022/11/20 13:50:16;;;;;;;12.80;10.20;;;;;;;;;;1748762;79;21035;-45
2022/11/20 13:52:58;;;;;;;13.20;10.17;;;;;;;;;;1745096;79;21334;-45
2022/11/20 13:55:30;;;;;;;14.33;10.53;;;;;;;;;;1748731;79;21122;-44
2022/11/20 13:58:03;;;;;;;11.57;10.37;;;;;;;;;;1741700;80;21183;-45
2022/11/20 14:00:30;;;;;;;11.30;9.40;;;;;;;;;;1749910;79;21956;-44
2022/11/20 14:03:12;;;;;;;15.70;11.10;;;;;;;;;;1747597;79;21038;-44
2022/11/20 14:05:40;;;;;;;12.47;9.97;;;;;;;;;;1743611;79;21082;-46
2022/11/20 14:08:11;;;;;;;10.70;9.07;;;;;;;;;;1747124;79;21026;-45
2022/11/20 14:10:39;;;;;;;14.00;10.43;;;;;;;;;;1739874;79;21063;-45
2022/11/20 14:13:19;;;;;;;14.57;9.53;;;;;;;;;;1740750;79;21820;-45
2022/11/20 14:15:47;;;;;;;11.80;10.20;;;;;;;;;;1734019;79;21082;-48
2022/11/20 14:18:21;;;;;;;10.90;9.13;;;;;;;;;;1743474;79;21062;-46
2022/11/20 14:23:42;;;;;;;13.17;8.53;;;;;;;;;;1794723;78;28021;-48
2022/11/20 14:26:08;;;;;;;11.77;9.27;;;;;;;;;;1773779;79;21056;-46
2022/11/20 14:28:35;;;;;;;10.57;8.17;;;;;;;;;;1718387;79;22572;-45
2022/11/20 14:31:01;;;;;;;9.00;7.63;;;;;;;;;;1774639;79;21494;-45
2022/11/20 14:33:27;;;;;;;11.33;8.60;;;;;;;;;;1777181;79;21112;-46
2022/11/20 14:35:55;;;;;;;10.00;8.47;;;;;;;;;;1775837;79;21061;-45
2022/11/20 14:38:25;;;;;;;11.60;8.43;;;;;;;;;;1774191;79;21083;-46
2022/11/20 14:40:52;;;;;;;11.53;8.47;;;;;;;;;;1773933;79;21844;-45
2022/11/20 14:43:28;;;;;;;13.70;9.97;;;;;;;;;;1773755;78;21052;-49
2022/11/20 14:45:58;;;;;;;;;;;;;;;;;;1778883;79;21084;-48
2022/11/20 14:48:30;;;;;;;15.63;10.63;;;;;;;;;;1773440;79;20167;-44
2022/11/20 14:50:57;;;;;;;10.53;8.80;;;;;;;;;;1774210;79;21096;-46
2022/11/20 14:53:24;;;;;;;12.57;10.10;;;;;;;;;;1774598;79;23298;-46
2022/11/20 14:55:58;;;;;;;19.73;14.83;;;;;;;;;;1767663;79;21491;-46
2022/11/20 14:58:25;;;;;;;;;;;;;;;;;;1775195;79;21484;-46
2022/11/20 15:00:57;;;;;;;16.17;11.37;;;;;;;;;;1773508;78;20787;-46